LEMD/MAD METAR and TAF weather

Enter ICAO airport designator
Station Type Date Time Source
LEMD METAR 2021/09/16 10:30 UTC NOAA

LEMD 161030Z 25002KT 9999 FEW070 21/15 Q1020 NOSIG


Station Type Date Time Source
LEMD Decoded METAR 2021/09/16 10:30 UTC NOAA

Madrid / Barajas, Spain (LEMD) 40-27N 003-33W 582M
Sep 16, 2021 - 06:30 AM EDT / 2021.09.16 1030 UTC
Wind: from the WSW (250 degrees) at 2 MPH (2 KT):0
Visibility: greater than 7 mile(s):0
Sky conditions: mostly clear
Temperature: 69 F (21 C)
Dew Point: 59 F (15 C)
Relative Humidity: 68%
Pressure (altimeter): 30.12 in. Hg (1020 hPa)
ob: LEMD 161030Z 25002KT 9999 FEW070 21/15 Q1020 NOSIG
cycle: 10

Station Type Date Time Source
LEMD TAF 2021/09/16 06:39 UTC NOAA

TAF
AMD LEMD 160534Z 1606/1712 VRB05KT 9999 FEW060 TX28/1615Z TN16/1706Z PROB30
TEMPO 1611/1618 FEW040TCU

Example: see airport list